Time;durP1;ratioP1;P1;durP2;ratioP2;P2;SDS_P1;SDS_P2;PMS_P1;PMS_P2;Temp;Humidity;BMP_temperature;BMP_pressure;BME280_temperature;BME280_humidity;BME280_pressure;Samples;Min_cycle;Max_cycle;Signal;HPM_P1;HPM_P2
2023/08/09 00:01:57;;;;;;;;;3.50;3.50;;;;;21.56;53.96;101107.53;5017686;28;58894;-68
2023/08/09 00:04:23;;;;;;;;;1.75;1.75;;;;;21.52;54.45;101107.09;5018319;28;45391;-70
2023/08/09 00:06:48;;;;;;;;;4.00;2.67;;;;;21.55;54.05;101112.09;5018497;28;45294;-67
2023/08/09 00:09:14;;;;;;;;;2.50;1.75;;;;;21.54;54.28;101102.31;5000184;28;47593;-68
2023/08/09 00:11:39;;;;;;;;;1.50;1.50;;;;;21.53;54.21;101106.06;5000189;28;45264;-68
2023/08/09 00:14:04;;;;;;;;;2.00;2.00;;;;;21.49;54.14;101099.41;4999830;28;45409;-69
2023/08/09 00:16:30;;;;;;;;;1.50;1.50;;;;;21.07;54.30;101032.13;5018441;28;45537;-69
2023/08/09 00:18:55;;;;;;;;;2.00;2.00;;;;;21.06;54.25;101025.06;5017548;28;57804;-68
2023/08/09 00:21:20;;;;;;;;;3.00;3.00;;;;;21.44;54.63;101093.78;5000059;28;45453;-69
2023/08/09 00:23:46;;;;;;;;;2.00;2.00;;;;;21.41;54.65;101088.78;5018118;28;45443;-68
2023/08/09 00:26:11;;;;;;;;;2.25;2.25;;;;;21.34;54.49;101087.94;5018221;28;45375;-68
2023/08/09 00:28:36;;;;;;;;;2.00;2.00;;;;;21.32;54.58;101090.03;5016552;28;46476;-68
2023/08/09 00:31:02;;;;;;;;;2.75;2.75;;;;;21.38;55.02;101105.41;5017090;28;59838;-68
2023/08/09 00:33:27;;;;;;;;;3.25;3.00;;;;;21.25;54.91;101086.50;5017743;28;45506;-69
2023/08/09 00:35:53;;;;;;;;;2.50;2.50;;;;;21.38;54.96;101104.59;5017346;28;50542;-69
2023/08/09 00:38:18;;;;;;;;;2.75;2.75;;;;;21.35;55.01;101111.25;5017519;28;46427;-70
2023/08/09 00:40:43;;;;;;;;;3.00;3.00;;;;;21.30;55.15;101105.63;4999204;28;59851;-68
2023/08/09 00:43:09;;;;;;;;;1.67;1.67;;;;;21.29;55.21;101112.06;5017885;28;45337;-68
2023/08/09 00:45:34;;;;;;;;;2.33;2.33;;;;;20.94;55.03;101062.66;5017667;28;45403;-68
2023/08/09 00:48:00;;;;;;;;;2.00;2.00;;;;;21.23;55.42;101102.06;5017487;28;46297;-67
2023/08/09 00:50:26;;;;;;;;;1.67;1.67;;;;;21.19;55.56;101103.47;5017324;28;45656;-67
2023/08/09 00:52:52;;;;;;;;;2.00;2.00;;;;;21.22;55.48;101113.88;5017673;28;45480;-68
2023/08/09 00:55:17;;;;;;;;;2.00;2.00;;;;;21.05;55.68;101088.28;5017648;28;45305;-68
2023/08/09 00:57:45;;;;;;;;;2.00;2.00;;;;;21.12;55.63;101103.47;5017346;28;45662;-68
2023/08/09 01:00:11;;;;;;;;;2.00;2.00;;;;;21.09;55.72;101098.47;5017108;28;45294;-69
2023/08/09 01:02:36;;;;;;;;;2.33;2.33;;;;;21.13;55.58;101117.81;5017533;28;45378;-68
2023/08/09 01:05:04;;;;;;;;;3.00;3.00;;;;;21.14;55.86;101116.78;5017573;28;45301;-69
2023/08/09 01:07:44;;;;;;;;;5.00;3.67;;;;;21.10;55.78;101100.16;5017382;28;46606;-68
2023/08/09 01:10:15;;;;;;;;;3.00;1.75;;;;;21.08;56.01;101106.78;5017113;28;45497;-68
2023/08/09 01:12:46;;;;;;;;;3.00;3.00;;;;;21.10;56.10;101107.41;5017408;28;45533;-69
2023/08/09 01:15:15;;;;;;;;;2.00;2.00;;;;;21.15;55.83;101113.88;5016900;28;45441;-69
2023/08/09 01:17:41;;;;;;;;;4.33;3.00;;;;;21.17;55.69;101113.66;5016984;28;46635;-68
2023/08/09 01:20:11;;;;;;;;;1.25;1.25;;;;;20.88;56.02;101055.38;5017134;28;45191;-68
2023/08/09 01:22:40;;;;;;;;;2.75;2.75;;;;;21.26;55.74;101120.59;5017162;28;45257;-69
2023/08/09 01:25:08;;;;;;;;;1.75;1.75;;;;;21.27;55.58;101133.09;5017458;28;45572;-69
2023/08/09 01:27:34;;;;;;;;;6.00;3.00;;;;;21.09;55.86;101098.47;5016961;28;47054;-69
2023/08/09 01:30:00;;;;;;;;;5.25;3.25;;;;;21.20;56.29;101111.38;5016914;28;45182;-69
2023/08/09 01:32:27;;;;;;;;;2.00;2.00;;;;;21.28;56.33;101123.94;5017075;28;45303;-69
2023/08/09 01:34:53;;;;;;;;;2.00;2.00;;;;;21.31;56.19;101126.22;5016989;28;45580;-68
2023/08/09 01:37:37;;;;;;;;;3.67;3.67;;;;;21.30;56.40;101129.13;5016913;28;46294;-69
2023/08/09 01:40:08;;;;;;;;;2.00;2.00;;;;;21.28;56.42;101121.22;5019689;28;45356;-68
2023/08/09 01:42:37;;;;;;;;;4.00;1.00;;;;;21.27;56.64;101122.28;5002538;28;45396;-68
2023/08/09 01:45:04;;;;;;;;;1.00;1.00;;;;;21.21;56.90;101118.47;5020560;28;45456;-68
2023/08/09 01:47:29;;;;;;;;;1.25;1.25;;;;;21.13;56.92;101107.00;5020252;28;47331;-69
2023/08/09 01:49:55;;;;;;;;;2.00;2.00;;;;;21.20;57.13;101132.19;5020343;28;45273;-68
2023/08/09 01:52:20;;;;;;;;;1.00;1.00;;;;;21.20;57.09;101129.47;5020673;28;45229;-70
2023/08/09 01:54:45;;;;;;;;;1.75;1.75;;;;;21.22;57.09;101133.69;5020371;28;45465;-67
2023/08/09 01:57:11;;;;;;;;;2.00;1.00;;;;;21.22;57.55;101128.25;5019718;28;58573;-68
2023/08/09 01:59:37;;;;;;;;;3.00;2.00;;;;;21.09;57.46;101098.47;5019793;28;45283;-68
2023/08/09 02:02:03;;;;;;;;;3.00;1.50;;;;;21.23;57.26;101134.50;5020215;28;45417;-69
2023/08/09 02:04:28;;;;;;;;;2.00;2.00;;;;;21.21;57.02;101123.88;5020342;28;45548;-68
2023/08/09 02:06:54;;;;;;;;;1.75;1.75;;;;;21.24;57.35;101131.63;5020149;28;45555;-68
2023/08/09 02:09:19;;;;;;;;;1.00;1.00;;;;;20.78;57.69;101066.56;5019977;28;45265;-69
2023/08/09 02:11:44;;;;;;;;;2.00;2.00;;;;;21.22;57.65;101143.63;5002211;28;49614;-68
2023/08/09 02:14:09;;;;;;;;;1.25;1.00;;;;;21.20;57.87;101134.88;5019570;28;45737;-68
2023/08/09 02:16:35;;;;;;;;;2.00;1.00;;;;;21.19;57.89;101135.94;5019357;28;60582;-68
2023/08/09 02:19:01;;;;;;;;;2.00;2.00;;;;;21.21;57.85;101125.75;5020036;28;45471;-69
2023/08/09 02:21:27;;;;;;;;;2.00;2.00;;;;;21.19;57.76;101122.41;5019860;28;45332;-68
2023/08/09 02:23:52;;;;;;;;;2.00;1.00;;;;;21.19;57.55;101136.75;5020071;28;45452;-69
2023/08/09 02:26:18;;;;;;;;;2.33;2.00;;;;;21.14;57.76;101125.72;5019822;28;45512;-69
2023/08/09 02:28:45;;;;;;;;;2.00;2.00;;;;;20.76;57.96;101062.41;5019436;28;45462;-69
2023/08/09 02:31:10;;;;;;;;;1.00;1.00;;;;;21.13;57.83;101120.53;5019947;28;45304;-69
2023/08/09 02:33:36;;;;;;;;;3.00;3.00;;;;;21.10;57.95;101123.66;5019979;28;45670;-68
2023/08/09 02:36:02;;;;;;;;;1.25;1.25;;;;;21.07;58.27;101119.47;5019638;28;46588;-68
2023/08/09 02:38:28;;;;;;;;;1.00;1.00;;;;;20.92;58.10;101100.72;5019481;28;45493;-69
2023/08/09 02:40:55;;;;;;;;;1.00;1.00;;;;;21.00;57.90;101123.19;5019873;28;45453;-72
2023/08/09 02:43:23;;;;;;;;;1.75;1.75;;;;;21.03;57.92;101122.81;5019930;28;45745;-68
2023/08/09 02:45:50;;;;;;;;;3.25;3.25;;;;;20.93;57.96;101109.66;5019205;28;45937;-68
2023/08/09 02:48:15;;;;;;;;;3.00;1.33;;;;;21.04;58.10;101132.56;5019466;28;45175;-69
2023/08/09 02:50:41;;;;;;;;;1.00;1.00;;;;;20.95;57.97;101111.13;5018667;28;45506;-68
2023/08/09 02:53:06;;;;;;;;;3.00;2.33;;;;;20.88;58.32;101112.97;5019698;28;45538;-68
2023/08/09 02:55:32;;;;;;;;;1.50;1.50;;;;;20.90;58.61;101113.59;5001363;28;46826;-66
2023/08/09 02:57:59;;;;;;;;;0.00;0.00;;;;;20.95;58.88;101132.75;5019388;28;45590;-70
2023/08/09 03:00:25;;;;;;;;;1.00;1.00;;;;;20.91;58.60;101131.47;5019030;28;45313;-69
2023/08/09 03:02:50;;;;;;;;;1.25;1.25;;;;;20.87;58.77;101132.94;5019555;28;45505;-68
2023/08/09 03:05:16;;;;;;;;;2.00;2.00;;;;;20.77;59.44;101124.34;5018746;28;57201;-68
2023/08/09 03:07:42;;;;;;;;;2.50;1.00;;;;;20.71;59.26;101111.66;5019114;28;45335;-68
2023/08/09 03:10:08;;;;;;;;;1.25;1.00;;;;;20.63;59.09;101111.84;5001304;28;45373;-69
2023/08/09 03:12:33;;;;;;;;;2.00;1.00;;;;;20.70;59.37;101131.59;5001399;28;45571;-68
2023/08/09 03:14:59;;;;;;;;;1.50;1.00;;;;;20.63;59.54;101125.34;5000621;28;47793;-68
2023/08/09 03:17:24;;;;;;;;;7.33;7.33;;;;;20.62;59.63;101129.91;5018753;28;50734;-68
2023/08/09 03:19:49;;;;;;;;;1.50;1.25;;;;;20.62;59.81;101140.72;5018982;28;45316;-69
2023/08/09 03:22:16;;;;;;;;;1.00;1.00;;;;;20.59;59.78;101143.78;5018933;28;45382;-69
2023/08/09 03:24:41;;;;;;;;;2.00;2.00;;;;;20.55;59.95;101157.91;5018861;28;46317;-69
2023/08/09 03:27:06;;;;;;;;;1.25;1.25;;;;;20.53;59.94;101146.47;5018902;28;45260;-70
2023/08/09 03:29:32;;;;;;;;;0.50;0.50;;;;;20.54;60.15;101157.06;5018469;28;46247;-68
2023/08/09 03:31:57;;;;;;;;;1.00;1.00;;;;;20.51;60.34;101145.84;5019057;28;45277;-68
2023/08/09 03:34:23;;;;;;;;;1.75;0.75;;;;;20.02;60.27;101065.75;5018622;28;46578;-69
2023/08/09 03:36:49;;;;;;;;;2.75;2.00;;;;;20.16;60.43;101094.50;5018494;28;45236;-68
2023/08/09 03:39:15;;;;;;;;;1.75;1.75;;;;;20.41;60.59;101142.66;5001254;28;45530;-69
2023/08/09 03:41:41;;;;;;;;;1.00;1.00;;;;;20.48;60.63;101143.53;5038493;28;45305;-68
2023/08/09 03:44:06;;;;;;;;;1.00;1.00;;;;;20.50;60.69;101154.97;5038051;28;45444;-69
2023/08/09 03:46:32;;;;;;;;;1.00;1.00;;;;;20.53;60.60;101149.19;5038147;28;47248;-68
2023/08/09 03:48:57;;;;;;;;;1.75;1.75;;;;;20.50;60.72;101138.78;5021945;28;45337;-73
2023/08/09 03:51:23;;;;;;;;;1.00;1.00;;;;;20.53;60.78;101151.88;5018091;28;45245;-68
2023/08/09 03:53:48;;;;;;;;;0.00;0.00;;;;;20.49;60.59;101147.91;5017898;28;46422;-67
2023/08/09 03:56:13;;;;;;;;;1.00;1.00;;;;;20.53;60.88;101158.13;5018068;28;45360;-68
2023/08/09 03:58:39;;;;;;;;;1.75;0.50;;;;;20.53;61.00;101165.38;4999820;28;45452;-68
2023/08/09 04:01:04;;;;;;;;;2.00;2.00;;;;;20.47;60.87;101155.38;5018091;28;45399;-68
2023/08/09 04:03:29;;;;;;;;;2.00;1.00;;;;;20.41;61.19;101151.59;5017364;28;62134;-68
2023/08/09 04:05:55;;;;;;;;;1.00;1.00;;;;;20.49;61.29;101170.34;5017889;28;45431;-67
2023/08/09 04:08:21;;;;;;;;;1.00;1.00;;;;;20.51;61.43;101179.09;5018287;28;45312;-67
2023/08/09 04:10:47;;;;;;;;;1.00;1.00;;;;;20.29;61.45;101143.19;5018022;28;45480;-68
2023/08/09 04:13:13;;;;;;;;;1.75;1.75;;;;;20.54;61.45;101178.69;5017564;28;45345;-67
2023/08/09 04:15:38;;;;;;;;;1.00;1.00;;;;;20.57;61.60;101177.44;5016948;28;45556;-68
2023/08/09 04:18:04;;;;;;;;;2.00;0.50;;;;;20.48;61.39;101167.84;5017923;28;45390;-68
2023/08/09 04:20:31;;;;;;;;;2.25;1.75;;;;;20.60;61.27;101196.78;5017504;28;45329;-68
2023/08/09 04:22:56;;;;;;;;;2.50;1.50;;;;;20.18;61.48;101124.81;5017748;28;45883;-68
2023/08/09 04:25:22;;;;;;;;;1.33;1.33;;;;;20.49;61.29;101169.53;5017452;28;45513;-68
2023/08/09 04:27:48;;;;;;;;;2.75;1.00;;;;;20.56;61.34;101184.72;4999853;28;45466;-69
2023/08/09 04:30:14;;;;;;;;;1.00;1.00;;;;;20.19;61.32;101123.78;5017358;28;45384;-68
2023/08/09 04:32:39;;;;;;;;;1.00;1.00;;;;;20.65;61.42;101190.81;5017655;28;46514;-68
2023/08/09 04:35:06;;;;;;;;;3.00;1.67;;;;;20.61;61.19;101189.53;5017446;28;45534;-68
2023/08/09 04:37:32;;;;;;;;;2.00;2.00;;;;;20.59;61.30;101180.78;5017453;28;45317;-68
2023/08/09 04:39:57;;;;;;;;;1.00;1.00;;;;;20.65;61.17;101204.31;5017869;28;45442;-68
2023/08/09 04:42:22;;;;;;;;;1.25;1.00;;;;;20.58;61.43;101187.22;5017268;28;46439;-68
2023/08/09 04:44:48;;;;;;;;;0.00;0.00;;;;;20.64;61.18;101202.66;5016914;28;45250;-69
2023/08/09 04:47:14;;;;;;;;;1.25;1.25;;;;;20.31;61.23;101149.22;5017522;28;45305;-69
2023/08/09 04:49:39;;;;;;;;;1.00;1.00;;;;;20.65;61.23;101209.72;5017648;28;45372;-69
2023/08/09 04:52:04;;;;;;;;;1.00;1.00;;;;;20.53;61.23;101192.41;5017168;28;45817;-68
2023/08/09 04:54:30;;;;;;;;;2.00;1.00;;;;;20.56;61.65;101202.81;5016998;28;45404;-68
2023/08/09 04:56:55;;;;;;;;;1.00;1.00;;;;;20.63;61.30;101212.63;5017386;28;45522;-68
2023/08/09 04:59:20;;;;;;;;;1.00;1.00;;;;;20.35;61.44;101164.00;5016796;28;45293;-68
2023/08/09 05:01:46;;;;;;;;;2.00;0.50;;;;;20.63;61.61;101225.31;5016699;28;58898;-68
2023/08/09 05:04:11;;;;;;;;;4.00;0.75;;;;;20.63;61.54;101220.75;5016926;28;45532;-69
2023/08/09 05:06:36;;;;;;;;;2.00;0.00;;;;;20.20;61.69;101138.97;5017116;28;45787;-69
2023/08/09 05:09:02;;;;;;;;;3.00;2.00;;;;;20.70;61.62;101218.06;5017104;28;46505;-68
2023/08/09 05:11:28;;;;;;;;;0.75;0.75;;;;;20.68;61.58;101212.03;5016334;28;47128;-69
2023/08/09 05:13:53;;;;;;;;;0.75;0.75;;;;;20.64;61.49;101206.19;5016177;28;45475;-68
2023/08/09 05:16:24;;;;;;;;;0.00;0.00;;;;;20.62;61.79;101196.59;5016420;28;60814;-68
2023/08/09 05:18:49;;;;;;;;;0.25;0.25;;;;;20.67;61.48;101210.38;5017035;28;45488;-68
2023/08/09 05:21:15;;;;;;;;;1.00;1.00;;;;;20.74;61.66;101218.50;5016212;28;45579;-68
2023/08/09 05:23:40;;;;;;;;;1.00;1.00;;;;;20.61;61.43;101197.63;5016643;28;48630;-68
2023/08/09 05:26:05;;;;;;;;;1.50;1.50;;;;;20.28;61.64;101141.53;4998671;28;48144;-68
2023/08/09 05:28:31;;;;;;;;;0.00;0.00;;;;;20.74;61.59;101215.78;5017218;28;45436;-68
2023/08/09 05:30:56;;;;;;;;;1.00;1.00;;;;;20.64;61.69;101194.56;5016248;28;46451;-68
2023/08/09 05:33:21;;;;;;;;;1.75;1.50;;;;;20.73;61.91;101220.38;5015945;28;57840;-68
2023/08/09 05:35:46;;;;;;;;;1.00;1.00;;;;;20.68;61.58;101209.34;5016206;28;56177;-69
2023/08/09 05:38:12;;;;;;;;;1.00;1.00;;;;;20.66;61.99;101197.88;5016650;28;45233;-68
2023/08/09 05:40:37;;;;;;;;;3.00;0.00;;;;;20.81;61.80;101231.00;5015915;28;60919;-69
2023/08/09 05:43:03;;;;;;;;;1.00;1.00;;;;;20.87;61.64;101232.09;5016236;28;52256;-68
2023/08/09 05:45:28;;;;;;;;;1.00;1.00;;;;;20.76;61.51;101221.84;5016159;28;45383;-68
2023/08/09 05:47:53;;;;;;;;;0.00;0.00;;;;;20.93;61.36;101237.53;5016722;28;45325;-69
2023/08/09 05:50:19;;;;;;;;;2.00;2.00;;;;;21.04;61.20;101243.41;5016245;28;46911;-70
2023/08/09 05:52:44;;;;;;;;;1.00;1.00;;;;;21.05;61.40;101235.09;5015924;28;45496;-67
2023/08/09 05:55:09;;;;;;;;;2.00;2.00;;;;;20.77;61.57;101191.06;5016494;28;45440;-68
2023/08/09 05:57:36;;;;;;;;;2.00;1.00;;;;;21.01;61.02;101230.28;5016591;28;45322;-68
2023/08/09 06:00:04;;;;;;;;;1.50;1.50;;;;;20.99;61.08;101224.25;5015827;28;47598;-68
2023/08/09 06:02:33;;;;;;;;;1.00;1.00;;;;;21.01;61.21;101228.41;5015653;28;45269;-68
2023/08/09 06:04:58;;;;;;;;;0.00;0.00;;;;;21.04;61.30;101232.59;5015922;28;45539;-68
2023/08/09 06:07:23;;;;;;;;;1.00;1.00;;;;;21.08;61.53;101233.88;5016468;28;45370;-68
2023/08/09 06:09:49;;;;;;;;;1.00;1.00;;;;;20.70;61.46;101177.53;5016117;28;46331;-67
2023/08/09 06:12:14;;;;;;;;;0.75;0.75;;;;;21.18;61.27;101245.13;5016151;28;45356;-67
2023/08/09 06:14:39;;;;;;;;;0.00;0.00;;;;;21.26;61.21;101234.19;5015910;28;45457;-68
2023/08/09 06:17:05;;;;;;;;;0.00;0.00;;;;;21.37;60.92;101239.00;5016446;28;45293;-68
2023/08/09 06:19:31;;;;;;;;;1.00;1.00;;;;;21.46;60.48;101231.56;5015854;28;45757;-70
2023/08/09 06:21:56;;;;;;;;;0.25;0.25;;;;;21.60;60.37;101243.22;5015991;28;45478;-68
2023/08/09 06:24:22;;;;;;;;;1.25;1.25;;;;;21.72;59.94;101252.41;5016129;28;45241;-69
2023/08/09 06:26:47;;;;;;;;;1.00;1.00;;;;;21.61;59.80;101215.97;5018665;28;45452;-69
2023/08/09 06:29:12;;;;;;;;;3.33;1.67;;;;;21.70;59.91;101235.56;5018974;28;45996;-68
2023/08/09 06:31:38;;;;;;;;;8.00;6.00;;;;;21.78;59.36;101247.00;5019054;28;52892;-69
2023/08/09 06:34:03;;;;;;;;;2.00;1.00;;;;;21.77;59.53;101249.94;5019084;28;45318;-69
2023/08/09 06:36:28;;;;;;;;;0.00;0.00;;;;;21.77;59.47;101258.88;5019481;28;45250;-68
2023/08/09 06:38:54;;;;;;;;;1.00;1.00;;;;;21.70;59.66;101270.75;5019209;28;45561;-69
2023/08/09 06:41:19;;;;;;;;;1.67;1.67;;;;;21.68;59.96;101273.66;5018976;28;45472;-68
2023/08/09 06:43:44;;;;;;;;;1.00;1.00;;;;;21.56;60.19;101259.03;5018774;28;45224;-69
2023/08/09 06:46:10;;;;;;;;;1.50;1.00;;;;;21.68;59.96;101278.22;5019398;28;45455;-68
2023/08/09 06:48:35;;;;;;;;;1.00;1.00;;;;;21.65;59.67;101279.47;5000746;28;46553;-69
2023/08/09 06:51:01;;;;;;;;;1.00;1.00;;;;;21.71;60.25;101288.66;5018355;28;60870;-69
2023/08/09 06:53:27;;;;;;;;;2.00;2.00;;;;;21.69;59.97;101290.72;5018582;28;45419;-67
2023/08/09 06:55:52;;;;;;;;;1.25;1.25;;;;;21.66;60.26;101280.31;5019230;28;45353;-68
2023/08/09 06:58:17;;;;;;;;;1.75;1.75;;;;;21.70;60.23;101297.81;5018934;28;45856;-69
2023/08/09 07:00:45;;;;;;;;;5.00;3.00;;;;;21.68;60.00;101299.88;5000046;28;62950;-68
2023/08/09 07:03:10;;;;;;;;;2.00;2.00;;;;;21.69;60.42;101294.25;5018564;28;45395;-68
2023/08/09 07:05:35;;;;;;;;;1.25;1.25;;;;;21.67;59.83;101295.50;5019057;28;45350;-68
2023/08/09 07:08:01;;;;;;;;;2.00;2.00;;;;;21.51;59.93;101275.06;5018775;28;46839;-68
2023/08/09 07:10:26;;;;;;;;;0.00;0.00;;;;;21.62;59.37;101308.78;5018522;28;47291;-67
2023/08/09 07:12:52;;;;;;;;;0.75;0.75;;;;;21.49;59.46;101286.06;5018778;28;45261;-70
2023/08/09 07:15:17;;;;;;;;;1.75;1.00;;;;;21.61;59.71;101299.00;5018341;28;45566;-68
2023/08/09 07:17:43;;;;;;;;;0.50;0.50;;;;;21.68;59.38;101299.88;5018489;28;45821;-69
2023/08/09 07:20:11;;;;;;;;;1.50;1.00;;;;;21.14;59.06;101200.59;5018636;28;45278;-68
2023/08/09 07:22:38;;;;;;;;;1.25;1.25;;;;;21.67;59.11;101287.38;5018690;28;45292;-68
2023/08/09 07:25:04;;;;;;;;;2.00;2.00;;;;;21.44;59.00;101245.28;5018625;28;45476;-68
2023/08/09 07:27:30;;;;;;;;;6.67;5.67;;;;;21.42;58.83;101241.09;5018523;28;45789;-69
2023/08/09 07:29:55;;;;;;;;;3.25;2.00;;;;;21.98;58.79;101312.03;5017845;28;45386;-69
2023/08/09 07:32:21;;;;;;;;;2.33;2.00;;;;;22.04;58.46;101315.81;5018503;28;45249;-69
2023/08/09 07:34:46;;;;;;;;;3.00;1.75;;;;;21.92;58.63;101291.19;5018142;28;45476;-67
2023/08/09 07:37:11;;;;;;;;;1.00;1.00;;;;;22.02;58.80;101309.72;5017725;28;46435;-69
2023/08/09 07:39:36;;;;;;;;;2.33;2.33;;;;;21.99;59.19;101319.09;5018315;28;45237;-69
2023/08/09 07:42:02;;;;;;;;;3.25;1.00;;;;;22.01;58.52;101322.44;5018232;28;45531;-69
2023/08/09 07:44:28;;;;;;;;;1.50;1.50;;;;;21.74;58.70;101274.69;5018044;28;45397;-69
2023/08/09 07:46:53;;;;;;;;;2.00;2.00;;;;;21.89;58.53;101297.03;5017784;28;54010;-70
2023/08/09 07:49:18;;;;;;;;;4.00;2.00;;;;;22.04;58.54;101315.81;5017809;28;45389;-68
2023/08/09 07:51:44;;;;;;;;;6.50;3.00;;;;;22.03;58.36;101314.97;4999690;28;47570;-68
2023/08/09 07:54:09;;;;;;;;;2.50;2.50;;;;;22.08;58.68;101325.22;5017468;28;45453;-69
2023/08/09 07:56:35;;;;;;;;;2.00;1.00;;;;;22.10;57.85;101326.66;4999782;28;48477;-68
2023/08/09 07:59:00;;;;;;;;;8.00;8.00;;;;;22.12;58.10;101329.16;5017734;28;45384;-68
2023/08/09 08:01:25;;;;;;;;;1.00;1.00;;;;;22.11;57.57;101309.38;5016951;28;57945;-68
2023/08/09 08:03:51;;;;;;;;;1.25;1.00;;;;;22.11;57.51;101295.84;5017920;28;45405;-68
2023/08/09 08:06:17;;;;;;;;;2.00;2.00;;;;;22.01;57.89;101271.00;4999845;28;47418;-71
2023/08/09 08:08:45;;;;;;;;;2.00;2.00;;;;;22.29;57.73;101307.94;5017622;28;45483;-68
2023/08/09 08:11:10;;;;;;;;;1.00;1.00;;;;;22.46;56.71;101309.22;5020225;28;45511;-70
2023/08/09 08:13:36;;;;;;;;;1.00;1.00;;;;;22.66;56.43;101325.47;5036213;28;45548;-72
2023/08/09 08:16:03;;;;;;;;;2.00;2.00;;;;;22.80;56.42;101318.97;5017464;28;46765;-69
2023/08/09 08:18:29;;;;;;;;;1.50;0.50;;;;;22.89;56.03;101304.19;5017491;28;45308;-68
2023/08/09 08:20:55;;;;;;;;;1.75;1.75;;;;;23.35;55.06;101323.06;5027318;28;45455;-69
2023/08/09 08:23:20;;;;;;;;;1.00;1.00;;;;;23.37;54.17;101284.84;5034486;28;45584;-69
2023/08/09 08:25:46;;;;;;;;;2.50;2.50;;;;;23.85;53.46;101338.75;5021163;28;45996;-74
2023/08/09 08:28:12;;;;;;;;;2.00;2.00;;;;;24.11;53.29;101329.59;5017047;28;45522;-70
2023/08/09 08:30:38;;;;;;;;;1.75;1.00;;;;;24.54;52.01;101325.13;5016882;28;45559;-68
2023/08/09 08:33:04;;;;;;;;;2.00;2.00;;;;;24.91;51.19;101325.22;5017663;28;45524;-68
2023/08/09 08:35:33;;;;;;;;;1.00;1.00;;;;;25.34;49.89;101335.25;5016673;28;45867;-69
2023/08/09 08:37:59;;;;;;;;;1.00;1.00;;;;;25.64;48.96;101341.59;5025544;28;45549;-69
2023/08/09 08:40:25;;;;;;;;;1.00;1.00;;;;;25.68;47.47;101337.38;5022041;28;45785;-68
2023/08/09 08:42:51;;;;;;;;;0.50;0.50;;;;;25.71;47.74;101339.63;5017022;28;45472;-69
2023/08/09 08:45:19;;;;;;;;;1.00;1.00;;;;;25.81;47.91;101340.97;5016874;28;46217;-68
2023/08/09 08:47:45;;;;;;;;;1.25;0.50;;;;;25.74;48.29;101327.44;5016248;28;45457;-69
2023/08/09 08:50:13;;;;;;;;;1.00;1.00;;;;;25.70;48.00;101337.97;5016051;28;45472;-69
2023/08/09 08:52:42;;;;;;;;;1.00;1.00;;;;;25.69;48.12;101344.50;5016741;28;45392;-69
2023/08/09 08:55:09;;;;;;;;;0.50;0.50;;;;;25.86;48.19;101347.41;5025139;28;46596;-69
2023/08/09 08:57:37;;;;;;;;;0.75;0.75;;;;;26.13;46.74;101353.31;5027210;28;45961;-69
2023/08/09 09:00:08;;;;;;;;;1.00;1.00;;;;;26.34;45.98;101351.94;5022840;28;45488;-69
2023/08/09 09:02:37;;;;;;;;;0.00;0.00;;;;;26.52;45.62;101349.16;5029729;28;45498;-69
2023/08/09 09:05:03;;;;;;;;;0.75;0.75;;;;;26.74;45.46;101360.34;5020825;28;45867;-69
2023/08/09 09:07:29;;;;;;;;;1.00;1.00;;;;;27.01;44.73;101354.44;5014563;28;45494;-68
2023/08/09 09:10:05;;;;;;;;;1.25;1.25;;;;;27.11;44.61;101358.25;5016601;28;45417;-69
2023/08/09 09:12:34;;;;;;;;;1.00;1.00;;;;;27.11;44.02;101346.50;5016906;28;45496;-69
2023/08/09 09:14:59;;;;;;;;;1.00;0.00;;;;;27.56;43.11;101357.56;5016226;28;45687;-69
2023/08/09 09:17:25;;;;;;;;;0.75;0.75;;;;;27.97;41.97;101366.59;5017455;28;45600;-69
2023/08/09 09:19:51;;;;;;;;;0.00;0.00;;;;;28.17;42.27;101345.94;5035947;28;45238;-68
2023/08/09 09:22:34;;;;;;;;;1.75;0.25;;;;;28.35;41.80;101349.56;5009067;28;45580;-68
2023/08/09 09:24:59;;;;;;;;;0.50;0.50;;;;;28.59;41.21;101359.25;5016350;28;45998;-69
2023/08/09 09:27:30;;;;;;;;;1.00;1.00;;;;;28.63;40.67;101365.06;5016060;28;45242;-69
2023/08/09 09:30:04;;;;;;;;;0.25;0.00;;;;;28.48;40.74;101371.13;5016293;28;45317;-69
2023/08/09 09:32:32;;;;;;;;;2.25;1.25;;;;;28.30;41.14;101360.41;5016532;28;45479;-70
2023/08/09 09:34:57;;;;;;;;;0.25;0.25;;;;;28.18;40.66;101374.94;5015940;28;46863;-69
2023/08/09 09:37:25;;;;;;;;;2.00;0.25;;;;;27.78;40.62;101342.19;5015742;28;45325;-68
2023/08/09 09:39:52;;;;;;;;;2.00;1.00;;;;;27.84;41.12;101365.00;5016480;28;45470;-69
2023/08/09 09:42:28;;;;;;;;;2.00;2.00;;;;;27.64;41.07;101362.69;5016299;28;46053;-68
2023/08/09 09:45:01;;;;;;;;;1.00;1.00;;;;;27.59;40.99;101354.34;5016178;28;45801;-70
2023/08/09 09:47:27;;;;;;;;;1.00;1.00;;;;;27.72;41.81;101359.56;5015615;28;45354;-71
2023/08/09 09:49:52;;;;;;;;;1.00;1.00;;;;;27.91;41.34;101346.56;5016134;28;45828;-69
2023/08/09 09:52:19;;;;;;;;;0.50;0.50;;;;;28.18;40.25;101369.47;5016107;28;45414;-69
2023/08/09 09:54:46;;;;;;;;;0.75;0.75;;;;;28.31;40.15;101356.59;5015788;28;45818;-69
2023/08/09 09:57:11;;;;;;;;;0.75;0.75;;;;;28.29;39.43;101323.22;5026327;28;46048;-69
2023/08/09 09:59:36;;;;;;;;;1.00;1.00;;;;;28.70;38.85;101369.31;5016599;28;45448;-70
2023/08/09 10:02:02;;;;;;;;;0.00;0.00;;;;;28.71;38.66;101373.69;5018142;28;45447;-68
2023/08/09 10:04:28;;;;;;;;;1.00;1.00;;;;;28.67;39.21;101372.53;5018850;28;45872;-69
2023/08/09 10:06:56;;;;;;;;;1.00;1.00;;;;;28.63;39.23;101381.47;5019127;28;45413;-68
2023/08/09 10:09:23;;;;;;;;;1.00;1.00;;;;;28.46;38.56;101367.81;5019814;28;45368;-69
2023/08/09 10:11:50;;;;;;;;;2.50;1.50;;;;;28.33;38.41;101368.94;5019513;28;45419;-69
2023/08/09 10:14:17;;;;;;;;;4.00;2.25;;;;;28.11;39.57;101357.88;5018861;28;46599;-69
2023/08/09 10:16:45;;;;;;;;;2.25;1.50;;;;;27.95;39.23;101372.31;5019139;28;45416;-69
2023/08/09 10:19:18;;;;;;;;;1.00;1.00;;;;;27.68;39.93;101347.47;5001354;28;45444;-68
2023/08/09 10:21:43;;;;;;;;;1.50;1.50;;;;;27.64;40.39;101361.88;5019272;28;45450;-68
2023/08/09 10:24:13;;;;;;;;;2.75;2.00;;;;;27.51;40.17;101362.94;5001582;28;46774;-69
2023/08/09 10:26:41;;;;;;;;;1.00;1.00;;;;;27.38;41.07;101366.75;5018915;28;45480;-69
2023/08/09 10:29:10;;;;;;;;;1.75;1.75;;;;;27.29;41.30;101365.47;5019504;28;45507;-69
2023/08/09 10:32:05;;;;;;;;;1.00;1.00;;;;;27.02;41.23;101372.47;5001494;28;45529;-69
2023/08/09 10:34:35;;;;;;;;;1.00;1.00;;;;;26.81;41.08;101360.22;4986979;28;46612;-69
2023/08/09 10:37:01;;;;;;;;;4.33;4.33;;;;;26.76;41.58;101377.31;5018983;28;45288;-69
2023/08/09 10:39:28;;;;;;;;;3.00;2.00;;;;;26.63;42.25;101380.25;5019126;28;45518;-71
2023/08/09 10:42:10;;;;;;;;;3.00;3.00;;;;;26.45;43.10;101369.44;5019134;28;45258;-69
2023/08/09 10:44:41;;;;;;;;;5.67;3.67;;;;;26.43;43.25;101382.44;5018519;28;46107;-69
2023/08/09 10:47:26;;;;;;;;;4.33;3.67;;;;;26.34;42.94;101384.66;5000686;28;45563;-68
2023/08/09 10:49:52;;;;;;;;;3.50;2.00;;;;;26.22;42.86;101390.06;5000190;28;45206;-69
2023/08/09 10:52:19;;;;;;;;;2.00;2.00;;;;;26.08;43.11;101364.09;5019038;28;45366;-71
2023/08/09 10:54:46;;;;;;;;;1.00;0.25;;;;;26.10;42.75;101359.22;5018679;28;46158;-69
2023/08/09 10:57:12;;;;;;;;;2.00;2.00;;;;;26.33;43.13;101389.28;5018653;28;45266;-69
2023/08/09 10:59:39;;;;;;;;;3.25;3.00;;;;;26.34;43.00;101387.38;5000562;28;45432;-70
2023/08/09 11:02:07;;;;;;;;;2.00;2.00;;;;;26.44;42.81;101395.88;5018660;28;45435;-69
2023/08/09 11:04:33;;;;;;;;;2.00;2.00;;;;;26.45;42.38;101396.72;5018419;28;46278;-70
2023/08/09 11:07:00;;;;;;;;;2.50;2.00;;;;;26.49;42.03;101404.19;5018295;28;45250;-69
2023/08/09 11:09:26;;;;;;;;;3.00;2.00;;;;;26.48;42.19;101418.88;5018998;28;45291;-70
2023/08/09 11:11:53;;;;;;;;;4.67;3.00;;;;;26.50;42.63;101405.00;5000149;28;45669;-69
2023/08/09 11:14:21;;;;;;;;;2.25;2.25;;;;;25.78;41.87;101294.06;5017950;28;46050;-69
2023/08/09 11:16:47;;;;;;;;;8.67;8.67;;;;;26.40;42.45;101404.72;5018240;28;45514;-68
2023/08/09 11:19:17;;;;;;;;;17.33;16.33;;;;;26.28;42.68;101402.78;5018420;28;45417;-69
2023/08/09 11:22:01;;;;;;;;;3.75;3.75;;;;;26.24;42.75;101404.31;5018673;28;45375;-70